createdAt,value
2023-03-20T00:01:34.180Z,99489.41
2023-03-20T00:04:07.537Z,99491.03
2023-03-20T00:06:43.051Z,99492.77
2023-03-20T00:09:16.033Z,99489.33
2023-03-20T00:11:52.811Z,99488.61
2023-03-20T00:14:27.274Z,99487.02
2023-03-20T00:17:00.374Z,99485.31
2023-03-20T00:19:33.463Z,99485.31
2023-03-20T00:22:06.660Z,99490.37
2023-03-20T00:24:39.742Z,99486.91
2023-03-20T00:27:15.093Z,99488.61
2023-03-20T00:29:48.161Z,99485.89
2023-03-20T00:32:21.408Z,99489.07
2023-03-20T00:34:54.466Z,99487.33
2023-03-20T00:37:29.111Z,99471.45
2023-03-20T00:40:03.249Z,99480.81
2023-03-20T00:42:36.410Z,99478.89
2023-03-20T00:45:16.228Z,99473.42
2023-03-20T00:47:54.196Z,99474.22
2023-03-20T00:50:29.898Z,99465.16
2023-03-20T00:53:03.454Z,99465.16
2023-03-20T00:55:36.849Z,99468.45
2023-03-20T00:58:14.425Z,99469.23
2023-03-20T01:00:48.031Z,99463.23
2023-03-20T01:03:23.008Z,99464.67
2023-03-20T01:05:57.582Z,99461.84
2023-03-20T01:08:30.697Z,99460.79
2023-03-20T01:11:03.666Z,99459.84
2023-03-20T01:13:38.149Z,99470.03
2023-03-20T01:16:21.393Z,99460.56
2023-03-20T01:18:54.954Z,99463.12
2023-03-20T01:21:27.870Z,99464.00
2023-03-20T01:24:00.818Z,99464.98
2023-03-20T01:26:38.264Z,99466.64
2023-03-20T01:29:22.511Z,99463.12
2023-03-20T01:31:56.568Z,99460.48
2023-03-20T01:34:31.177Z,99460.48
2023-03-20T01:37:04.532Z,99458.71
2023-03-20T01:39:39.888Z,99450.94
2023-03-20T01:42:17.337Z,99450.75
2023-03-20T01:44:50.450Z,99448.91
2023-03-20T01:47:26.288Z,99442.91
2023-03-20T01:50:35.354Z,99440.26
2023-03-20T01:53:21.861Z,99435.28
2023-03-20T01:58:42.650Z,99442.03
2023-03-20T02:01:16.898Z,99438.00
2023-03-20T02:03:52.752Z,99432.88
2023-03-20T02:06:30.181Z,99432.00
2023-03-20T02:09:05.588Z,99430.30
2023-03-20T02:11:43.389Z,99432.00
2023-03-20T02:14:17.196Z,99429.44
2023-03-20T02:16:57.035Z,99424.38
2023-03-20T02:19:38.079Z,99426.16
2023-03-20T02:22:29.931Z,99428.00
2023-03-20T02:25:28.605Z,99423.13
2023-03-20T02:28:15.548Z,99417.51
2023-03-20T02:31:12.011Z,99372.92
2023-03-20T02:37:46.427Z,99407.66
2023-03-20T02:40:25.398Z,99407.91
2023-03-20T02:43:02.233Z,99400.03
2023-03-20T02:45:36.668Z,99396.52
2023-03-20T02:48:20.570Z,99409.50
2023-03-20T02:50:57.163Z,99403.57
2023-03-20T02:53:36.150Z,99401.00
2023-03-20T02:56:16.806Z,99401.95
2023-03-20T02:58:55.234Z,99397.79
2023-03-20T03:01:33.359Z,99394.50
2023-03-20T03:04:13.306Z,99394.65
2023-03-20T03:06:48.968Z,99399.96
2023-03-20T03:09:25.255Z,99387.34
2023-03-20T03:12:01.199Z,99382.46
2023-03-20T03:14:39.778Z,99382.71
2023-03-20T03:17:16.730Z,99374.35
2023-03-20T03:23:59.156Z,99382.27
2023-03-20T03:27:17.747Z,99382.27
2023-03-20T03:30:27.872Z,99383.00
2023-03-20T03:37:53.125Z,99379.64
2023-03-20T03:41:30.395Z,99376.46
2023-03-20T03:44:46.180Z,99386.40
2023-03-20T03:48:03.386Z,99378.38
2023-03-20T03:51:10.890Z,99376.45
2023-03-20T03:54:47.133Z,99366.12
2023-03-20T03:58:40.513Z,99371.17
2023-03-20T04:01:22.495Z,99362.35
2023-03-20T04:04:04.801Z,99362.17
2023-03-20T04:06:37.749Z,99357.94
2023-03-20T04:09:12.112Z,99364.73
2023-03-20T04:11:54.449Z,99363.15
2023-03-20T04:14:30.748Z,99358.99
2023-03-20T04:17:04.726Z,99351.44
2023-03-20T04:19:38.194Z,99354.27
2023-03-20T04:22:11.254Z,99349.42
2023-03-20T04:24:44.366Z,99341.18
2023-03-20T04:27:21.125Z,99342.30
2023-03-20T04:29:55.155Z,99338.42
2023-03-20T04:32:53.792Z,99332.81
2023-03-20T04:35:34.861Z,99328.86
2023-03-20T04:38:12.777Z,99334.21
2023-03-20T04:40:47.821Z,99336.13
2023-03-20T04:43:20.873Z,99335.50
2023-03-20T04:45:53.846Z,99333.00
2023-03-20T04:48:27.976Z,99312.73
2023-03-20T04:51:01.408Z,99334.62
2023-03-20T04:53:36.025Z,99337.50
2023-03-20T04:56:13.331Z,99341.01
2023-03-20T04:58:46.373Z,99345.66
2023-03-20T05:01:20.883Z,99346.09
2023-03-20T05:03:55.889Z,99350.73
2023-03-20T05:06:29.440Z,99346.83
2023-03-20T05:09:04.156Z,99352.58
2023-03-20T05:11:38.833Z,99356.24
2023-03-20T05:14:14.484Z,99354.97
2023-03-20T05:16:51.059Z,99358.25
2023-03-20T05:19:31.755Z,99351.18
2023-03-20T05:22:18.018Z,99351.72
2023-03-20T05:24:52.908Z,99342.05
2023-03-20T05:27:43.573Z,99345.36
2023-03-20T05:30:36.511Z,99340.08
2023-03-20T05:33:11.295Z,99342.47
2023-03-20T05:38:35.080Z,99338.97
2023-03-20T05:41:26.175Z,99342.50
2023-03-20T05:44:09.057Z,99346.41
2023-03-20T05:46:52.603Z,99345.00
2023-03-20T05:49:43.248Z,99342.98
2023-03-20T05:52:23.804Z,99350.06
2023-03-20T05:55:11.122Z,99345.86
2023-03-20T05:57:57.728Z,99346.42
2023-03-20T06:00:35.240Z,99353.23
2023-03-20T06:03:13.055Z,99356.39
2023-03-20T06:05:53.562Z,99355.05
2023-03-20T06:08:26.709Z,99353.66
2023-03-20T06:11:00.566Z,99351.22
2023-03-20T06:13:35.575Z,99353.03
2023-03-20T06:16:12.209Z,99352.69
2023-03-20T06:18:45.316Z,99350.59
2023-03-20T06:21:18.333Z,99343.42
2023-03-20T06:23:52.054Z,99344.08
2023-03-20T06:26:26.720Z,99344.36
2023-03-20T06:29:04.142Z,99345.53
2023-03-20T06:31:38.083Z,99340.34
2023-03-20T06:34:12.204Z,99336.88
2023-03-20T06:36:48.662Z,99339.50
2023-03-20T06:39:23.315Z,99343.64
2023-03-20T06:41:57.420Z,99331.52
2023-03-20T06:44:30.706Z,99331.26
2023-03-20T06:47:11.552Z,99334.68
2023-03-20T06:49:45.989Z,99325.42
2023-03-20T06:52:22.595Z,99328.63
2023-03-20T06:54:58.806Z,99327.04
2023-03-20T06:57:33.927Z,99332.39
2023-03-20T07:00:10.417Z,99323.44
2023-03-20T07:02:43.870Z,99329.90
2023-03-20T07:05:19.269Z,99327.80
2023-03-20T07:07:53.101Z,99319.52
2023-03-20T07:10:26.061Z,99314.04
2023-03-20T07:12:58.968Z,99311.88
2023-03-20T07:15:32.496Z,99317.07
2023-03-20T07:18:06.213Z,99310.64
2023-03-20T07:20:39.199Z,99310.95
2023-03-20T07:23:12.340Z,99309.70
2023-03-20T07:25:47.622Z,99303.42
2023-03-20T07:28:21.610Z,99268.39
2023-03-20T07:30:56.907Z,99302.91
2023-03-20T07:33:30.275Z,99304.00
2023-03-20T07:36:03.337Z,99308.37
2023-03-20T07:38:36.743Z,99298.80
2023-03-20T07:41:11.428Z,99292.67
2023-03-20T07:43:47.859Z,99300.60
2023-03-20T07:46:28.893Z,99285.67
2023-03-20T07:49:02.117Z,99287.11
2023-03-20T07:51:36.087Z,99281.50
2023-03-20T07:54:09.095Z,99286.23
2023-03-20T07:56:42.728Z,99288.03
2023-03-20T07:59:19.032Z,99275.28
2023-03-20T08:01:53.782Z,99275.56
2023-03-20T08:04:26.823Z,99277.22
2023-03-20T08:07:02.468Z,99278.19
2023-03-20T08:09:35.877Z,99273.80
2023-03-20T08:12:09.367Z,99280.36
2023-03-20T08:14:43.901Z,99284.18
2023-03-20T08:17:21.883Z,99290.27
2023-03-20T08:19:54.233Z,99277.43
2023-03-20T08:22:27.222Z,99265.12
2023-03-20T08:25:00.162Z,99272.52
2023-03-20T08:27:33.920Z,99269.67
2023-03-20T08:30:09.045Z,99261.09
2023-03-20T08:32:42.169Z,99271.61
2023-03-20T08:35:31.825Z,99260.56
2023-03-20T08:37:49.930Z,99254.41
2023-03-20T08:40:22.951Z,99261.65
2023-03-20T08:42:56.178Z,99261.58
2023-03-20T08:45:29.324Z,99258.40
2023-03-20T08:48:02.203Z,99256.03
2023-03-20T08:50:35.575Z,99260.77
2023-03-20T08:53:08.846Z,99253.11
2023-03-20T08:55:41.899Z,99254.51
2023-03-20T08:58:14.794Z,99253.83
2023-03-20T09:00:48.700Z,99250.19
2023-03-20T09:03:23.006Z,99248.27
2023-03-20T09:05:55.869Z,99237.09
2023-03-20T09:08:28.906Z,99231.14
2023-03-20T09:11:02.040Z,99239.17
2023-03-20T09:16:16.905Z,99230.18
2023-03-20T09:18:50.212Z,99231.04
2023-03-20T09:21:23.161Z,99229.00
2023-03-20T09:23:56.253Z,99231.86
2023-03-20T09:26:29.248Z,99223.25
2023-03-20T09:29:02.868Z,99222.04
2023-03-20T09:31:35.848Z,99224.59
2023-03-20T09:34:08.873Z,99219.78
2023-03-20T09:36:42.067Z,99211.50
2023-03-20T09:39:14.968Z,99212.18
2023-03-20T09:41:57.001Z,99208.25
2023-03-20T09:44:35.789Z,99203.92
2023-03-20T09:47:20.232Z,99202.20
2023-03-20T09:49:57.151Z,99208.48
2023-03-20T09:52:32.793Z,99200.98
2023-03-20T09:55:09.549Z,99191.95
2023-03-20T09:57:44.618Z,99203.30
2023-03-20T10:00:22.461Z,99186.59
2023-03-20T10:02:58.612Z,99180.21
2023-03-20T10:05:35.053Z,99185.69
2023-03-20T10:08:15.702Z,99182.11
2023-03-20T10:10:52.718Z,99185.47
2023-03-20T10:14:02.215Z,99174.95
2023-03-20T10:16:43.744Z,99180.38
2023-03-20T10:19:21.933Z,99186.52
2023-03-20T10:21:57.858Z,99175.83
2023-03-20T10:24:33.688Z,99175.83
2023-03-20T10:27:09.840Z,99169.85
2023-03-20T10:29:48.877Z,99165.59
2023-03-20T10:32:26.456Z,99164.17
2023-03-20T10:35:04.527Z,99159.28
2023-03-20T10:37:45.764Z,99159.59
2023-03-20T10:40:32.621Z,99150.62
2023-03-20T10:43:08.901Z,99146.12
2023-03-20T10:45:45.876Z,99153.53
2023-03-20T10:48:24.095Z,99149.21
2023-03-20T10:50:59.890Z,99144.73
2023-03-20T10:53:38.088Z,99140.34
2023-03-20T10:56:16.884Z,99136.16
2023-03-20T10:58:52.258Z,99138.32
2023-03-20T11:01:26.132Z,99135.95
2023-03-20T11:03:59.637Z,99126.13
2023-03-20T11:06:35.505Z,99126.95
2023-03-20T11:09:19.356Z,99125.03
2023-03-20T11:11:55.158Z,99122.68
2023-03-20T11:14:30.985Z,99124.61
2023-03-20T11:17:06.414Z,99124.73
2023-03-20T11:19:41.109Z,99132.01
2023-03-20T11:22:24.852Z,99129.34
2023-03-20T11:25:01.717Z,99116.31
2023-03-20T11:27:36.993Z,99121.17
2023-03-20T11:30:15.898Z,99119.52
2023-03-20T11:32:51.211Z,99118.02
2023-03-20T11:35:31.194Z,99123.02
2023-03-20T11:38:16.624Z,99117.30
2023-03-20T11:40:52.020Z,99109.14
2023-03-20T11:43:27.929Z,99093.84
2023-03-20T11:46:04.633Z,99091.12
2023-03-20T11:48:41.950Z,99085.50
2023-03-20T11:51:18.115Z,99087.37
2023-03-20T11:54:03.715Z,99087.78
2023-03-20T11:56:37.976Z,99082.33
2023-03-20T11:59:15.903Z,99085.09
2023-03-20T12:01:52.819Z,99079.84
2023-03-20T12:04:31.509Z,99080.13
2023-03-20T12:07:09.715Z,99072.85
2023-03-20T12:09:46.314Z,99058.42
2023-03-20T12:15:10.601Z,99061.69
2023-03-20T12:17:47.879Z,99060.41
2023-03-20T12:20:28.763Z,99054.38
2023-03-20T12:23:15.572Z,99053.12
2023-03-20T12:25:55.060Z,99058.52
2023-03-20T12:28:31.789Z,99047.48
2023-03-20T12:31:10.838Z,99052.82
2023-03-20T12:33:47.873Z,99034.59
2023-03-20T12:36:25.277Z,99029.26
2023-03-20T12:38:58.438Z,99038.17
2023-03-20T12:41:34.597Z,99028.94
2023-03-20T12:44:16.924Z,99023.44
2023-03-20T12:46:55.262Z,99024.45
2023-03-20T12:49:36.359Z,99018.70
2023-03-20T12:52:14.851Z,99017.84
2023-03-20T12:55:01.643Z,99014.58
2023-03-20T12:57:39.220Z,99015.55
2023-03-20T13:00:20.202Z,99011.24
2023-03-20T13:02:59.589Z,98998.95
2023-03-20T13:05:39.953Z,98998.80
2023-03-20T13:08:42.361Z,98998.67
2023-03-20T13:11:20.693Z,98992.29
2023-03-20T13:13:56.704Z,98995.53
2023-03-20T13:16:38.473Z,98993.64
2023-03-20T13:19:15.448Z,98995.00
2023-03-20T13:21:53.177Z,98994.30
2023-03-20T13:27:38.521Z,98997.53
2023-03-20T13:30:15.780Z,98994.31
2023-03-20T13:32:54.536Z,98972.80
2023-03-20T13:35:36.048Z,98983.72
2023-03-20T13:38:15.899Z,98991.59
2023-03-20T13:40:51.455Z,98982.30
2023-03-20T13:43:30.947Z,98977.98
2023-03-20T13:46:08.980Z,98984.00
2023-03-20T13:48:44.146Z,98979.51
2023-03-20T13:51:26.170Z,98977.88
2023-03-20T13:54:05.666Z,98974.58
2023-03-20T13:56:44.453Z,98966.88
2023-03-20T13:59:49.826Z,98960.81
2023-03-20T14:02:31.163Z,98961.34
2023-03-20T14:05:08.856Z,98958.48
2023-03-20T14:07:42.430Z,98956.42
2023-03-20T14:13:22.377Z,98949.55
2023-03-20T14:15:58.549Z,98947.50
2023-03-20T14:18:32.912Z,98945.45
2023-03-20T14:21:11.021Z,98943.14
2023-03-20T14:23:47.274Z,98940.14
2023-03-20T14:26:25.942Z,98950.50
2023-03-20T14:29:02.893Z,98941.44
2023-03-20T14:31:38.631Z,98940.65
2023-03-20T14:34:18.389Z,98941.70
2023-03-20T14:37:01.584Z,98945.69
2023-03-20T14:39:44.859Z,98938.16
2023-03-20T14:42:30.882Z,98940.06
2023-03-20T14:45:18.812Z,98934.91
2023-03-20T14:47:56.194Z,98937.52
2023-03-20T14:50:32.596Z,98936.60
2023-03-20T14:53:15.829Z,98927.89
2023-03-20T14:56:02.203Z,98932.27
2023-03-20T14:58:50.368Z,98936.70
2023-03-20T15:04:40.664Z,98929.86
2023-03-20T15:07:17.177Z,98930.78
2023-03-20T15:09:52.876Z,98926.42
2023-03-20T15:12:28.742Z,98922.92
2023-03-20T15:15:03.533Z,98920.32
2023-03-20T15:17:40.707Z,98922.08
2023-03-20T15:20:17.619Z,98925.56
2023-03-20T15:22:52.709Z,98918.59
2023-03-20T15:25:28.343Z,98918.59
2023-03-20T15:28:01.523Z,98916.84
2023-03-20T15:30:37.184Z,98916.84
2023-03-20T15:33:15.076Z,98920.33
2023-03-20T15:35:48.510Z,98922.08
2023-03-20T15:38:23.121Z,98915.98
2023-03-20T15:40:56.393Z,98915.96
2023-03-20T15:43:29.778Z,98915.97
2023-03-20T15:46:17.485Z,98916.78
2023-03-20T15:48:39.075Z,98914.13
2023-03-20T15:51:13.562Z,98907.16
2023-03-20T15:53:49.353Z,98913.27
2023-03-20T15:56:25.315Z,98918.45
2023-03-20T15:59:00.620Z,98920.16
2023-03-20T16:01:35.636Z,98921.84
2023-03-20T16:04:10.088Z,98927.06
2023-03-20T16:06:49.544Z,98921.88
2023-03-20T16:09:22.858Z,98921.02
2023-03-20T16:12:00.901Z,98918.41
2023-03-20T16:14:36.558Z,98918.34
2023-03-20T16:17:09.805Z,98913.98
2023-03-20T16:19:43.303Z,98920.09
2023-03-20T16:22:23.742Z,98918.34
2023-03-20T16:24:59.959Z,98913.98
2023-03-20T16:27:35.965Z,98912.30
2023-03-20T16:30:15.389Z,98916.59
2023-03-20T16:32:51.392Z,98912.16
2023-03-20T16:35:28.358Z,98923.36
2023-03-20T16:38:03.352Z,98926.75
2023-03-20T16:40:40.600Z,98916.18
2023-03-20T16:43:20.666Z,98912.48
2023-03-20T16:45:56.482Z,98926.22
2023-03-20T16:48:33.222Z,98921.63
2023-03-20T16:51:12.448Z,98918.80
2023-03-20T16:53:48.936Z,98916.19
2023-03-20T16:56:28.507Z,98922.15
2023-03-20T16:59:03.009Z,98911.66
2023-03-20T17:01:43.278Z,98909.78
2023-03-20T17:04:23.020Z,98907.05
2023-03-20T17:06:58.217Z,98908.66
2023-03-20T17:09:35.052Z,98913.87
2023-03-20T17:12:16.353Z,98912.19
2023-03-20T17:14:49.756Z,98907.83
2023-03-20T17:17:25.144Z,98906.95
2023-03-20T17:20:02.876Z,98906.02
2023-03-20T17:22:38.861Z,98904.37
2023-03-20T17:25:13.500Z,98915.81
2023-03-20T17:27:48.370Z,98901.22
2023-03-20T17:30:24.004Z,98902.05
2023-03-20T17:32:57.170Z,98907.98
2023-03-20T17:35:30.412Z,98907.98
2023-03-20T17:38:03.430Z,98906.30
2023-03-20T17:40:36.548Z,98903.73
2023-03-20T17:43:13.129Z,98900.21
2023-03-20T17:45:47.641Z,98904.54
2023-03-20T17:48:25.847Z,98896.59
2023-03-20T17:51:02.559Z,98885.26
2023-03-20T17:53:35.565Z,98889.52
2023-03-20T17:56:15.042Z,98890.34
2023-03-20T17:58:47.887Z,98888.48
2023-03-20T18:01:20.995Z,98887.62
2023-03-20T18:03:54.285Z,98890.98
2023-03-20T18:06:30.564Z,98884.11
2023-03-20T18:09:05.042Z,98885.03
2023-03-20T18:11:38.191Z,98883.17
2023-03-20T18:14:12.487Z,98888.27
2023-03-20T18:16:45.507Z,98885.41
2023-03-20T18:19:25.812Z,98887.81
2023-03-20T18:21:59.788Z,98891.05
2023-03-20T18:24:32.915Z,98880.59
2023-03-20T18:27:06.116Z,98877.84
2023-03-20T18:29:39.213Z,98887.22
2023-03-20T18:32:12.286Z,98876.52
2023-03-20T18:35:20.503Z,98876.30
2023-03-20T18:37:53.093Z,98874.36
2023-03-20T18:40:28.263Z,98863.81
2023-03-20T18:43:01.414Z,98866.48
2023-03-20T18:45:40.265Z,98864.64
2023-03-20T18:51:30.891Z,98858.09
2023-03-20T18:54:06.293Z,98857.09
2023-03-20T18:56:40.801Z,98860.62
2023-03-20T18:59:19.759Z,98857.22
2023-03-20T19:01:53.438Z,98862.38
2023-03-20T19:04:27.244Z,98858.97
2023-03-20T19:07:00.311Z,98854.62
2023-03-20T19:09:33.807Z,98851.22
2023-03-20T19:12:11.704Z,98855.63
2023-03-20T19:14:45.391Z,98857.31
2023-03-20T19:17:20.716Z,98848.50
2023-03-20T19:19:56.093Z,98867.34
2023-03-20T19:22:31.692Z,98855.20
2023-03-20T19:25:07.108Z,98855.26
2023-03-20T19:27:43.886Z,98855.11
2023-03-20T19:30:33.508Z,98858.55
2023-03-20T19:33:08.403Z,98861.04
2023-03-20T19:36:02.236Z,98854.00
2023-03-20T19:38:23.786Z,98851.25
2023-03-20T19:40:57.981Z,98847.80
2023-03-20T19:43:32.369Z,98841.84
2023-03-20T19:46:09.657Z,98841.00
2023-03-20T19:48:50.604Z,98840.92
2023-03-20T19:51:21.628Z,98820.80
2023-03-20T19:53:55.834Z,98835.53
2023-03-20T19:56:28.890Z,98833.77
2023-03-20T19:59:03.183Z,98825.98
2023-03-20T20:01:38.966Z,98776.92
2023-03-20T20:04:11.929Z,98821.33
2023-03-20T20:06:47.508Z,98821.39
2023-03-20T20:09:20.658Z,98824.03
2023-03-20T20:11:53.702Z,98814.63
2023-03-20T20:14:26.818Z,98812.06
2023-03-20T20:16:59.902Z,98818.80
2023-03-20T20:19:32.820Z,98808.50
2023-03-20T20:22:24.979Z,98810.30
2023-03-20T20:24:41.512Z,98809.47
2023-03-20T20:27:17.448Z,98808.66
2023-03-20T20:29:51.614Z,98802.59
2023-03-20T20:32:26.986Z,98800.70
2023-03-20T20:38:21.217Z,98802.34
2023-03-20T20:40:15.655Z,98793.83
2023-03-20T20:42:50.586Z,98793.91
2023-03-20T20:45:26.118Z,98787.92
2023-03-20T20:47:59.174Z,98787.84
2023-03-20T20:50:36.099Z,98785.98
2023-03-20T20:53:09.354Z,98781.66
2023-03-20T20:55:42.420Z,98779.86
2023-03-20T20:58:15.607Z,98774.66
2023-03-20T21:00:54.008Z,98781.53
2023-03-20T21:03:24.581Z,98774.63
2023-03-20T21:05:57.719Z,98771.23
2023-03-20T21:08:30.819Z,98770.37
2023-03-20T21:11:03.851Z,98774.69
2023-03-20T21:13:38.214Z,98759.96
2023-03-20T21:16:13.163Z,98759.77
2023-03-20T21:18:46.552Z,98754.57
2023-03-20T21:21:19.514Z,98758.07
2023-03-20T21:23:55.563Z,98750.39
2023-03-20T21:26:28.692Z,98753.00
2023-03-20T21:29:02.073Z,98756.45
2023-03-20T21:31:35.264Z,98756.40
2023-03-20T21:34:08.332Z,98737.31
2023-03-20T21:36:41.320Z,98746.70
2023-03-20T21:39:15.509Z,98746.80
2023-03-20T21:41:48.887Z,98733.78
2023-03-20T21:44:56.030Z,98734.56
2023-03-20T21:47:55.693Z,98732.73
2023-03-20T21:52:59.902Z,98732.65
2023-03-20T21:57:55.727Z,98733.29
2023-03-20T22:00:47.762Z,98725.45
2023-03-20T22:02:35.372Z,98719.33
2023-03-20T22:05:48.456Z,98713.18
2023-03-20T22:08:48.624Z,98719.99
2023-03-20T22:21:27.400Z,98703.47
2023-03-20T22:24:05.816Z,98705.17
2023-03-20T22:26:58.362Z,98705.11
2023-03-20T22:29:17.748Z,98700.83
2023-03-20T22:34:30.832Z,98697.58
2023-03-20T22:37:16.394Z,98690.73
2023-03-20T22:39:36.604Z,98689.92
2023-03-20T22:42:28.665Z,98683.11
2023-03-20T22:44:56.806Z,98674.57
2023-03-20T22:46:47.557Z,98681.50
2023-03-20T22:49:20.885Z,98678.12
2023-03-20T22:52:11.706Z,98673.79
2023-03-20T22:54:30.161Z,98672.95
2023-03-20T22:57:03.635Z,98666.89
2023-03-20T22:59:36.558Z,98659.97
2023-03-20T23:02:11.013Z,98665.98
2023-03-20T23:04:44.212Z,98665.92
2023-03-20T23:07:17.375Z,98658.95
2023-03-20T23:09:50.978Z,98656.23
2023-03-20T23:12:23.945Z,98657.89
2023-03-20T23:14:58.049Z,98655.25
2023-03-20T23:17:33.827Z,98649.16
2023-03-20T23:20:15.310Z,98649.16
2023-03-20T23:22:46.712Z,98650.00
2023-03-20T23:25:37.876Z,98644.72
2023-03-20T23:27:55.660Z,98647.25
2023-03-20T23:30:37.852Z,98636.87
2023-03-20T23:33:03.874Z,98602.74
2023-03-20T23:35:36.795Z,98637.71
2023-03-20T23:38:09.838Z,98636.80
2023-03-20T23:40:45.740Z,98640.27
2023-03-20T23:43:19.041Z,98639.41
2023-03-20T23:45:52.068Z,98630.73
2023-03-20T23:48:25.276Z,98627.27
2023-03-20T23:50:58.207Z,98622.90
2023-03-20T23:53:38.880Z,98621.95
2023-03-20T23:56:14.433Z,98627.06
2023-03-20T23:58:58.246Z,98619.25
